Time;durP1;ratioP1;P1;durP2;ratioP2;P2;SDS_P1;SDS_P2;PMS_P1;PMS_P2;Temp;Humidity;BMP_temperature;BMP_pressure;BME280_temperature;BME280_humidity;BME280_pressure;Samples;Min_cycle;Max_cycle;Signal;HPM_P1;HPM_P2
2024/02/15 00:02:14;;;;;;;1.70;0.80;;;;;;;21.09;46.74;101591.56;5054109;27;98636;-76
2024/02/15 00:04:40;;;;;;;2.08;0.80;;;;;;;21.08;46.82;101587.16;5033993;27;97654;-76
2024/02/15 00:07:05;;;;;;;2.22;1.55;;;;;;;21.08;46.99;101584.50;5052196;27;96821;-76
2024/02/15 00:09:31;;;;;;;2.13;0.70;;;;;;;21.09;46.60;101582.75;5054726;27;96743;-77
2024/02/15 00:11:57;;;;;;;1.45;0.80;;;;;;;21.09;46.62;101574.78;5044550;27;96999;-77
2024/02/15 00:14:22;;;;;;;1.98;0.82;;;;;;;21.09;46.77;101575.66;5055272;27;98058;-76
2024/02/15 00:16:48;;;;;;;1.88;1.10;;;;;;;21.09;46.55;101567.69;5043641;27;120991;-76
2024/02/15 00:19:16;;;;;;;1.85;0.70;;;;;;;21.09;46.53;101572.13;5043126;27;98661;-76
2024/02/15 00:21:45;;;;;;;;;;;;;;;21.04;46.77;101574.00;5046562;27;97162;-76
2024/02/15 00:24:11;;;;;;;1.55;0.68;;;;;;;21.07;46.69;101587.22;5048622;27;100152;-76
2024/02/15 00:26:37;;;;;;;2.78;1.52;;;;;;;21.06;46.85;101569.53;5039213;27;97300;-76
2024/02/15 00:29:02;;;;;;;1.75;0.98;;;;;;;21.08;46.50;101568.59;5051812;27;96727;-76
2024/02/15 00:31:27;;;;;;;1.60;0.82;;;;;;;21.08;46.64;101573.03;5039588;27;113055;-76
2024/02/15 00:33:53;;;;;;;2.20;1.38;;;;;;;21.08;46.86;101571.25;5029326;27;99853;-76
2024/02/15 00:36:19;;;;;;;2.85;1.58;;;;;;;21.07;46.85;101571.31;5037511;27;97244;-76
2024/02/15 00:38:45;;;;;;;2.38;0.75;;;;;;;21.09;46.88;101569.50;5047959;27;97104;-76
2024/02/15 00:41:10;;;;;;;2.17;0.63;;;;;;;21.08;46.81;101565.94;5052880;27;96935;-75
2024/02/15 00:43:36;;;;;;;2.33;0.80;;;;;;;21.10;46.88;101571.22;5056821;27;97855;-76
2024/02/15 00:46:01;;;;;;;2.70;1.25;;;;;;;21.09;46.74;101562.41;5045595;27;97866;-76
2024/02/15 00:48:28;;;;;;;1.20;0.60;;;;;;;21.09;46.55;101561.53;5045834;27;96868;-75
2024/02/15 00:50:54;;;;;;;2.13;1.52;;;;;;;21.09;46.70;101570.34;5043756;27;96767;-76
2024/02/15 00:53:20;;;;;;;1.23;0.73;;;;;;;21.10;46.50;101574.75;5044178;27;97001;-77
2024/02/15 00:55:45;;;;;;;2.13;1.10;;;;;;;21.10;46.93;101572.13;5046383;27;97811;-76
2024/02/15 00:58:11;;;;;;;2.15;0.80;;;;;;;21.10;46.62;101572.13;5046123;27;112510;-76
2024/02/15 01:00:37;;;;;;;1.90;1.27;;;;;;;21.09;46.89;101572.13;5052627;27;97759;-76
2024/02/15 01:03:03;;;;;;;1.48;1.17;;;;;;;21.10;46.95;101572.13;5047797;27;97560;-75
2024/02/15 01:05:28;;;;;;;2.88;0.82;;;;;;;21.10;46.60;101574.75;5048055;27;97897;-76
2024/02/15 01:07:55;;;;;;;2.10;1.83;;;;;;;21.10;46.86;101574.75;5035938;27;96802;-76
2024/02/15 01:10:21;;;;;;;1.77;0.80;;;;;;;21.10;46.71;101577.41;5049164;27;98681;-76
2024/02/15 01:12:46;;;;;;;1.70;0.90;;;;;;;21.10;46.85;101572.13;5044212;27;97715;-76
2024/02/15 01:15:12;;;;;;;1.40;0.73;;;;;;;21.10;46.66;101574.75;5047211;27;97174;-76
2024/02/15 01:17:37;;;;;;;2.10;0.82;;;;;;;21.10;46.83;101571.22;5058055;27;96790;-76
2024/02/15 01:20:03;;;;;;;1.40;0.90;;;;;;;21.11;46.82;101565.88;5044119;27;96900;-76
2024/02/15 01:22:28;;;;;;;1.40;0.70;;;;;;;21.11;47.15;101568.53;5047460;27;98330;-76
2024/02/15 01:24:54;;;;;;;1.88;0.73;;;;;;;21.10;46.98;101564.16;5056496;27;97886;-76
2024/02/15 01:27:19;;;;;;;1.67;0.60;;;;;;;21.11;46.59;101562.38;5052161;27;96870;-76
2024/02/15 01:29:45;;;;;;;1.65;1.15;;;;;;;21.11;46.72;101557.94;5055688;27;97191;-76
2024/02/15 01:32:10;;;;;;;1.73;0.63;;;;;;;21.11;46.89;101559.72;5049958;27;97243;-75
2024/02/15 01:34:36;;;;;;;1.73;1.13;;;;;;;21.11;46.68;101559.72;5052240;27;97231;-76
2024/02/15 01:37:01;;;;;;;1.52;0.70;;;;;;;21.11;47.04;101557.06;5051645;27;97855;-76
2024/02/15 01:39:26;;;;;;;2.15;1.30;;;;;;;21.11;46.86;101554.41;5069456;27;110392;-76
2024/02/15 01:41:55;;;;;;;1.90;0.80;;;;;;;21.11;46.81;101552.63;5053338;27;97916;-76
2024/02/15 01:44:24;;;;;;;1.80;1.30;;;;;;;21.12;46.99;101548.19;5057759;27;97010;-76
2024/02/15 01:46:52;;;;;;;1.27;0.60;;;;;;;21.12;46.85;101537.56;5042209;27;97125;-76
2024/02/15 01:49:17;;;;;;;1.25;0.70;;;;;;;21.11;46.88;101544.66;5048614;27;96917;-76
2024/02/15 01:51:44;;;;;;;1.65;0.80;;;;;;;21.11;46.81;101536.72;5038069;27;99802;-76
2024/02/15 01:54:13;;;;;;;1.70;1.48;;;;;;;21.11;47.01;101542.00;5055365;27;97549;-76
2024/02/15 01:56:38;;;;;;;1.60;1.30;;;;;;;21.12;46.74;101548.19;5060230;27;97328;-76
2024/02/15 01:59:05;;;;;;;2.20;1.55;;;;;;;21.12;46.99;101548.19;5031197;27;96943;-76
2024/02/15 02:01:34;;;;;;;1.83;0.80;;;;;;;21.12;46.81;101548.19;5052003;27;98587;-76
2024/02/15 02:04:00;;;;;;;1.35;0.65;;;;;;;21.13;47.08;101541.13;5054731;27;97415;-76
2024/02/15 02:06:26;;;;;;;1.83;0.70;;;;;;;21.13;46.99;101535.81;5050176;27;96771;-76
2024/02/15 02:08:52;;;;;;;2.10;0.80;;;;;;;21.13;47.02;101538.47;5043998;27;97507;-76
2024/02/15 02:11:17;;;;;;;1.42;0.88;;;;;;;21.12;46.59;101532.25;5049062;27;96790;-76
2024/02/15 02:13:43;;;;;;;1.38;0.63;;;;;;;21.13;46.70;101519.91;5049451;27;97299;-76
2024/02/15 02:16:32;;;;;;;1.77;0.77;;;;;;;21.11;46.78;101525.22;5058992;27;96985;-76
2024/02/15 02:18:58;;;;;;;1.63;0.70;;;;;;;21.13;46.92;101514.59;5051875;27;96800;-76
2024/02/15 02:21:28;;;;;;;2.28;1.42;;;;;;;21.12;46.72;101519.00;5047053;27;97730;-76
2024/02/15 02:23:56;;;;;;;1.33;1.15;;;;;;;21.13;46.81;101525.22;5053797;27;99210;-76
2024/02/15 02:26:23;;;;;;;1.65;1.17;;;;;;;21.12;47.11;101524.31;5056317;27;96701;-76
2024/02/15 02:28:49;;;;;;;1.45;0.60;;;;;;;21.13;46.93;101520.75;5058642;27;96900;-75
2024/02/15 02:31:14;;;;;;;2.58;1.40;;;;;;;21.14;47.04;101521.63;5029473;27;98202;-76
2024/02/15 02:33:42;;;;;;;1.42;0.70;;;;;;;21.13;47.05;101517.25;5046730;27;96745;-75
2024/02/15 02:36:09;;;;;;;2.22;1.27;;;;;;;21.14;47.03;101513.66;5053091;27;96809;-76
2024/02/15 02:38:37;;;;;;;2.28;0.80;;;;;;;21.14;46.74;101505.72;5049327;27;96777;-76
2024/02/15 02:41:03;;;;;;;1.77;0.70;;;;;;;21.13;46.79;101501.34;5050725;27;98191;-76
2024/02/15 02:43:29;;;;;;;1.70;1.17;;;;;;;21.13;46.93;101501.34;5050841;27;97824;-76
2024/02/15 02:45:55;;;;;;;1.50;0.70;;;;;;;21.14;46.96;101497.75;5060008;27;110132;-76
2024/02/15 02:48:21;;;;;;;0.98;0.65;;;;;;;21.14;46.72;101508.38;5052187;27;96817;-75
2024/02/15 02:50:47;;;;;;;1.52;0.68;;;;;;;21.14;46.66;101497.75;5042388;27;97124;-76
2024/02/15 02:53:13;;;;;;;2.28;0.75;;;;;;;21.14;47.00;101498.66;5040489;27;97197;-76
2024/02/15 02:55:40;;;;;;;1.35;0.52;;;;;;;21.14;46.77;101511.03;5049351;27;96905;-76
2024/02/15 02:58:07;;;;;;;1.80;1.20;;;;;;;21.15;46.95;101499.50;5052553;27;96849;-76
2024/02/15 03:00:33;;;;;;;1.77;0.80;;;;;;;21.14;46.72;101497.75;5036518;27;97624;-76
2024/02/15 03:02:59;;;;;;;2.28;1.50;;;;;;;21.15;47.09;101504.81;5052321;27;97462;-76
2024/02/15 03:05:25;;;;;;;1.52;1.20;;;;;;;21.14;47.13;101498.66;5043016;27;97418;-75
2024/02/15 03:07:51;;;;;;;2.33;1.52;;;;;;;21.14;46.65;101497.75;5049390;27;96991;-76
2024/02/15 03:10:18;;;;;;;1.70;1.05;;;;;;;21.14;46.97;101488.03;5042424;27;97449;-75
2024/02/15 03:12:46;;;;;;;2.03;0.63;;;;;;;21.15;46.93;101499.50;5050420;27;97321;-75
2024/02/15 03:15:12;;;;;;;1.67;0.70;;;;;;;21.14;46.95;101496.00;5055586;27;96750;-76
2024/02/15 03:17:39;;;;;;;1.65;1.23;;;;;;;21.15;46.85;101491.56;5041064;27;98081;-76
2024/02/15 03:20:20;;;;;;;2.22;1.52;;;;;;;21.14;47.03;101482.72;5046602;27;98859;-76
2024/02/15 03:22:54;;;;;;;1.60;1.23;;;;;;;21.13;47.10;101486.28;5060844;27;96995;-76
2024/02/15 03:25:19;;;;;;;4.05;0.80;;;;;;;21.14;46.74;101487.16;5054234;27;96679;-76
2024/02/15 03:27:44;;;;;;;1.98;0.93;;;;;;;21.13;46.72;101488.94;5056643;27;96981;-76
2024/02/15 03:30:10;;;;;;;1.50;0.70;;;;;;;21.14;47.00;101492.44;5051161;27;120569;-76
2024/02/15 03:32:36;;;;;;;2.20;0.70;;;;;;;21.14;47.14;101484.50;5047860;27;96828;-75
2024/02/15 03:35:02;;;;;;;1.83;0.63;;;;;;;21.13;46.94;101483.63;5069267;27;96835;-76
2024/02/15 03:37:28;;;;;;;2.00;1.27;;;;;;;21.14;47.09;101488.03;5052632;27;96720;-76
2024/02/15 03:39:54;;;;;;;2.15;1.30;;;;;;;21.13;46.72;101480.97;5049821;27;97662;-76
2024/02/15 03:42:20;;;;;;;2.03;0.75;;;;;;;21.13;47.03;101480.97;5040977;27;99605;-75
2024/02/15 03:44:47;;;;;;;2.15;0.82;;;;;;;21.14;46.83;101476.53;5041626;27;96786;-75
2024/02/15 03:47:14;;;;;;;1.85;1.38;;;;;;;21.14;47.04;101487.16;5055668;27;97096;-76
2024/02/15 03:49:42;;;;;;;1.75;0.70;;;;;;;21.14;47.07;101481.84;5059137;27;96725;-76
2024/02/15 03:52:10;;;;;;;2.00;0.70;;;;;;;21.14;46.91;101476.53;5039485;27;97272;-76
2024/02/15 03:54:36;;;;;;;1.50;0.93;;;;;;;21.14;47.31;101485.38;5054105;27;97079;-76
2024/02/15 03:57:01;;;;;;;1.50;1.15;;;;;;;21.14;46.88;101489.78;5044792;27;97277;-76
2024/02/15 03:59:27;;;;;;;1.50;1.05;;;;;;;21.13;46.81;101486.28;5043805;27;96946;-76
2024/02/15 04:01:54;;;;;;;1.85;0.80;;;;;;;21.14;46.88;101489.78;5045450;27;97257;-75
2024/02/15 04:04:23;;;;;;;1.67;0.57;;;;;;;21.14;46.80;101490.69;5045207;27;96912;-76
2024/02/15 04:06:49;;;;;;;1.33;0.73;;;;;;;21.14;46.85;101485.38;5046289;27;97420;-75
2024/02/15 04:09:15;;;;;;;1.73;0.73;;;;;;;21.14;47.05;101485.38;5041030;27;99797;-76
2024/02/15 04:11:40;;;;;;;2.22;0.80;;;;;;;21.14;46.80;101476.53;5047685;27;99406;-76
2024/02/15 04:14:06;;;;;;;1.92;1.58;;;;;;;21.15;46.82;101481.81;5045187;27;97789;-76
2024/02/15 04:16:33;;;;;;;1.95;1.27;;;;;;;21.15;47.05;101473.00;5050890;27;97173;-76
2024/02/15 04:18:59;;;;;;;2.60;0.70;;;;;;;21.14;47.03;101472.13;5051666;27;100571;-76
2024/02/15 04:21:24;;;;;;;1.83;0.68;;;;;;;21.15;46.95;101478.28;5054909;27;97073;-75
2024/02/15 04:23:51;;;;;;;1.63;0.70;;;;;;;21.15;47.03;101475.66;5029440;27;97327;-76
2024/02/15 04:26:19;;;;;;;1.92;0.95;;;;;;;21.16;46.89;101469.41;5057610;27;97164;-76
2024/02/15 04:28:48;;;;;;;2.15;1.60;;;;;;;21.15;46.75;101470.34;5069497;27;97092;-75
2024/02/15 04:31:13;;;;;;;1.20;0.63;;;;;;;21.15;46.70;101473.00;5052046;27;97812;-76
2024/02/15 04:33:39;;;;;;;1.70;0.88;;;;;;;21.15;46.87;101476.50;5046761;27;96983;-75
2024/02/15 04:36:06;;;;;;;1.67;0.63;;;;;;;21.16;46.92;101474.72;5055440;27;97404;-76
2024/02/15 04:38:34;;;;;;;1.90;1.25;;;;;;;21.15;47.24;101475.66;5040044;27;97690;-76
2024/02/15 04:41:01;;;;;;;2.35;1.92;;;;;;;21.15;46.66;101473.00;5048680;27;97306;-76
2024/02/15 04:43:26;;;;;;;2.40;1.40;;;;;;;21.14;47.27;101472.13;5054658;27;97386;-75
2024/02/15 04:45:52;;;;;;;1.50;1.20;;;;;;;21.15;46.72;101473.84;5056855;27;96879;-76
2024/02/15 04:48:19;;;;;;;2.05;1.42;;;;;;;21.16;47.10;101477.38;5052159;27;97846;-76
2024/02/15 04:50:45;;;;;;;1.58;0.57;;;;;;;21.15;46.92;101467.69;5049486;27;97548;-76
2024/02/15 04:53:11;;;;;;;2.15;0.80;;;;;;;21.16;47.04;101466.75;5047232;27;97553;-76
2024/02/15 04:55:36;;;;;;;1.38;0.75;;;;;;;21.16;47.09;101469.41;5046119;27;96804;-76
2024/02/15 04:58:04;;;;;;;1.65;1.25;;;;;;;21.15;47.12;101463.25;5051261;27;97494;-76
2024/02/15 05:00:29;;;;;;;1.67;1.33;;;;;;;21.15;46.86;101451.78;5069710;27;97752;-76
2024/02/15 05:02:55;;;;;;;1.80;1.27;;;;;;;21.15;46.87;101455.28;5070618;27;97421;-75
2024/02/15 05:05:21;;;;;;;3.20;1.58;;;;;;;21.16;47.04;101458.81;5065994;27;97379;-76
2024/02/15 05:07:48;;;;;;;0.98;0.50;;;;;;;21.16;46.71;101448.19;5046394;27;97413;-76
2024/02/15 05:10:15;;;;;;;1.77;0.60;;;;;;;21.15;46.82;101443.81;5053190;27;97930;-76
2024/02/15 05:12:42;;;;;;;1.63;0.93;;;;;;;21.16;47.12;101448.19;5043504;27;96848;-76
2024/02/15 05:15:10;;;;;;;2.00;0.60;;;;;;;21.16;46.93;101448.19;5055960;27;96937;-76
2024/02/15 05:17:42;;;;;;;1.85;1.45;;;;;;;21.15;47.16;101449.97;5040079;27;99632;-76
2024/02/15 05:20:13;;;;;;;2.05;1.23;;;;;;;21.16;46.99;101462.34;5043643;27;97448;-76
2024/02/15 05:22:40;;;;;;;1.52;0.70;;;;;;;21.16;46.76;101456.16;5036007;27;96919;-76
2024/02/15 05:25:07;;;;;;;1.20;0.60;;;;;;;21.16;46.63;101459.69;5021568;27;97031;-76
2024/02/15 05:27:33;;;;;;;1.30;0.80;;;;;;;21.17;47.16;101461.44;5040812;27;97692;-75
2024/02/15 05:29:59;;;;;;;1.75;0.70;;;;;;;21.17;46.86;101457.91;5046943;27;96794;-75
2024/02/15 05:32:25;;;;;;;2.58;1.30;;;;;;;21.17;46.74;101460.56;5046598;27;108843;-76
2024/02/15 05:34:51;;;;;;;1.10;0.60;;;;;;;21.18;47.01;101464.97;5052054;27;96857;-75
2024/02/15 05:37:16;;;;;;;1.02;0.60;;;;;;;21.18;47.00;101463.19;5042746;27;109893;-76
2024/02/15 05:39:42;;;;;;;1.15;0.70;;;;;;;21.17;47.09;101473.81;5042814;27;97216;-76
2024/02/15 05:42:07;;;;;;;1.23;0.60;;;;;;;21.17;47.10;101466.72;5052671;27;96866;-75
2024/02/15 05:44:34;;;;;;;3.03;0.80;;;;;;;21.17;46.81;101465.88;5041373;27;97312;-76
2024/02/15 05:47:00;;;;;;;1.45;1.10;;;;;;;21.17;46.92;101464.06;5043909;27;97359;-76
2024/02/15 05:49:25;;;;;;;1.85;1.15;;;;;;;21.17;46.96;101461.44;5030847;27;99294;-76
2024/02/15 05:51:53;;;;;;;2.38;1.10;;;;;;;21.17;47.10;101455.25;5044041;27;97694;-76
2024/02/15 05:54:18;;;;;;;1.85;1.23;;;;;;;21.17;47.13;101455.25;5045201;27;96837;-76
2024/02/15 05:56:44;;;;;;;3.55;0.70;;;;;;;21.17;46.71;101452.59;5043011;27;99010;-76
2024/02/15 05:59:10;;;;;;;1.90;0.80;;;;;;;21.18;46.70;101451.72;5042598;27;97336;-76
2024/02/15 06:01:40;;;;;;;1.55;1.23;;;;;;;21.16;47.11;101450.84;5044754;27;96737;-76
2024/02/15 06:04:08;;;;;;;2.38;1.27;;;;;;;21.17;46.90;101449.94;5039045;27;97980;-76
2024/02/15 06:06:37;;;;;;;0.85;0.50;;;;;;;21.16;46.78;101448.19;5021608;27;98636;-76
2024/02/15 06:09:04;;;;;;;1.88;0.77;;;;;;;21.18;47.11;101441.09;5037420;27;97602;-76
2024/02/15 06:11:30;;;;;;;1.20;0.60;;;;;;;21.18;47.11;101441.97;5049800;27;97535;-76
2024/02/15 06:13:55;;;;;;;1.77;0.70;;;;;;;21.18;46.71;101425.19;5047055;27;97149;-76
2024/02/15 06:16:21;;;;;;;1.48;1.15;;;;;;;21.18;46.83;101419.88;5044339;27;117383;-76
2024/02/15 06:18:47;;;;;;;1.42;0.70;;;;;;;21.18;46.85;101414.56;5035350;27;97142;-76
2024/02/15 06:21:13;;;;;;;1.15;0.65;;;;;;;21.18;47.03;101398.66;5047163;27;97746;-76
2024/02/15 06:23:38;;;;;;;1.48;1.25;;;;;;;21.18;46.65;101398.66;5054320;27;97300;-76
2024/02/15 06:26:04;;;;;;;2.42;1.10;;;;;;;21.18;47.03;101374.78;5045107;27;103765;-76
2024/02/15 06:39:41;;;;;;;1.50;1.27;;;;;;;21.15;47.00;101343.00;5055179;27;97927;-76
2024/02/15 06:42:11;;;;;;;1.58;0.63;;;;;;;21.15;47.20;101361.59;5056696;27;96734;-76
2024/02/15 06:44:36;;;;;;;1.52;0.70;;;;;;;21.16;47.03;101376.56;5060865;27;97059;-76
2024/02/15 06:47:02;;;;;;;1.50;1.20;;;;;;;21.16;47.02;101381.88;5061185;27;97730;-75
2024/02/15 06:49:28;;;;;;;1.40;1.02;;;;;;;21.16;46.85;101387.19;5063847;27;97159;-76
2024/02/15 06:51:54;;;;;;;1.00;0.50;;;;;;;21.17;47.11;101394.25;5052422;27;96852;-76
2024/02/15 06:54:19;;;;;;;1.80;0.73;;;;;;;21.17;46.68;101402.19;5060199;27;96811;-76
2024/02/15 06:56:54;;;;;;;2.40;0.73;;;;;;;21.16;47.12;101406.66;5047909;27;97237;-75
2024/02/15 06:59:22;;;;;;;1.98;1.38;;;;;;;21.17;47.03;101418.97;5038981;27;99513;-76
2024/02/15 07:01:55;;;;;;;1.30;0.63;;;;;;;21.17;47.04;101424.28;5043924;27;96760;-76
2024/02/15 07:04:20;;;;;;;1.73;1.25;;;;;;;21.17;47.05;101421.63;5044710;27;97399;-76
2024/02/15 07:06:49;;;;;;;1.85;1.20;;;;;;;21.18;47.16;101427.84;5049727;27;97632;-76
2024/02/15 07:09:21;;;;;;;1.90;1.15;;;;;;;21.18;46.77;101422.53;5042045;27;97404;-76
2024/02/15 07:11:47;;;;;;;2.20;1.40;;;;;;;21.18;47.09;101425.19;5045680;27;97177;-76
2024/02/15 07:14:13;;;;;;;1.10;0.75;;;;;;;21.19;46.98;101434.88;5048756;27;97675;-76
2024/02/15 07:16:39;;;;;;;3.50;1.40;;;;;;;21.18;46.78;101435.78;5040289;27;97589;-76
2024/02/15 07:19:05;;;;;;;1.40;1.30;;;;;;;21.19;46.71;101438.38;5047423;27;97200;-75
2024/02/15 07:21:31;;;;;;;2.33;1.60;;;;;;;21.19;47.14;101445.47;5046080;27;97326;-76
2024/02/15 07:23:58;;;;;;;2.72;1.48;;;;;;;21.19;46.71;101450.78;5049092;27;98656;-75
2024/02/15 07:26:25;;;;;;;1.40;1.08;;;;;;;21.20;47.16;101433.97;5047809;27;96821;-76
2024/02/15 07:28:53;;;;;;;1.65;0.70;;;;;;;21.20;46.88;101415.41;5048783;27;98250;-77
2024/02/15 07:31:19;;;;;;;1.42;0.73;;;;;;;21.21;46.90;101403.88;5039593;27;97272;-77
2024/02/15 07:33:44;;;;;;;1.88;0.75;;;;;;;21.20;47.13;101396.84;5041458;27;96974;-76
2024/02/15 07:36:10;;;;;;;1.80;0.75;;;;;;;21.20;47.14;101396.84;5049749;27;103760;-76
2024/02/15 07:38:35;;;;;;;1.05;0.52;;;;;;;21.19;47.15;101390.63;5048194;27;96832;-76
2024/02/15 07:41:01;;;;;;;1.55;1.17;;;;;;;21.19;47.14;101398.59;5048821;27;97042;-76
2024/02/15 07:43:27;;;;;;;2.08;1.38;;;;;;;21.19;47.09;101390.63;5043560;27;98928;-76
2024/02/15 07:45:52;;;;;;;1.80;1.20;;;;;;;21.20;47.03;101400.34;5047780;27;96953;-76
2024/02/15 07:48:18;;;;;;;2.35;1.40;;;;;;;21.20;46.92;101405.66;5048825;27;96811;-76
2024/02/15 07:50:43;;;;;;;1.80;1.27;;;;;;;21.20;47.03;101400.34;5049801;27;112691;-76
2024/02/15 07:53:10;;;;;;;2.13;1.27;;;;;;;21.21;47.12;101395.91;5050316;27;98453;-76
2024/02/15 07:55:36;;;;;;;1.55;0.70;;;;;;;21.21;46.89;101401.22;5054797;27;97108;-76
2024/02/15 07:58:02;;;;;;;1.58;0.80;;;;;;;21.20;46.94;101389.75;5049520;27;99057;-76
2024/02/15 08:00:27;;;;;;;1.63;1.20;;;;;;;21.21;47.02;101403.88;5046161;27;97350;-76
2024/02/15 08:02:54;;;;;;;1.58;0.63;;;;;;;21.21;46.94;101403.88;5056394;27;96841;-77
2024/02/15 08:05:20;;;;;;;1.92;0.80;;;;;;;21.21;47.02;101403.88;5051742;27;98048;-76
2024/02/15 08:07:49;;;;;;;1.85;1.30;;;;;;;21.20;46.70;101395.03;5049170;27;99303;-76
2024/02/15 08:10:15;;;;;;;1.65;0.63;;;;;;;21.21;46.97;101395.91;5046225;27;97415;-76
2024/02/15 08:12:41;;;;;;;1.50;1.10;;;;;;;21.22;46.81;101410.94;5050335;27;97321;-76
2024/02/15 08:15:11;;;;;;;2.00;1.42;;;;;;;21.21;47.27;101406.53;5044858;27;100676;-76
2024/02/15 08:17:47;;;;;;;1.17;0.60;;;;;;;21.21;47.17;101403.88;5044335;27;97251;-76
2024/02/15 08:20:14;;;;;;;1.83;1.40;;;;;;;21.22;47.09;101405.63;5049349;27;97143;-76
2024/02/15 08:22:41;;;;;;;1.17;0.60;;;;;;;21.22;47.11;101395.00;5041601;27;99593;-76
2024/02/15 08:25:10;;;;;;;1.90;1.17;;;;;;;21.21;47.09;101388.84;5034217;27;97713;-76
2024/02/15 08:27:42;;;;;;;2.03;1.45;;;;;;;21.21;46.97;101388.84;5045819;27;97866;-76
2024/02/15 08:30:09;;;;;;;2.10;0.85;;;;;;;21.22;46.83;101387.06;5050542;27;97140;-76
2024/02/15 08:32:35;;;;;;;1.33;1.05;;;;;;;21.23;47.27;101383.47;5053136;27;96740;-76
2024/02/15 08:35:00;;;;;;;1.70;1.15;;;;;;;21.23;46.76;101391.44;5053638;27;97474;-76
2024/02/15 08:37:26;;;;;;;1.65;1.13;;;;;;;21.22;46.95;101385.25;5056192;27;97374;-76
2024/02/15 08:39:52;;;;;;;4.25;1.20;;;;;;;21.23;46.95;101394.97;5064716;27;96874;-77
2024/02/15 08:42:22;;;;;;;1.23;0.70;;;;;;;21.24;47.05;101387.88;5049013;27;96982;-76
2024/02/15 08:44:48;;;;;;;1.05;0.60;;;;;;;21.23;47.11;101388.78;5049293;27;97959;-76
2024/02/15 08:47:13;;;;;;;2.72;0.82;;;;;;;21.23;47.02;101384.38;5056397;27;97784;-77
2024/02/15 08:49:40;;;;;;;1.60;1.42;;;;;;;21.23;46.79;101388.78;5053504;27;96790;-76
2024/02/15 08:52:07;;;;;;;0.93;0.63;;;;;;;21.24;47.07;101387.88;5042265;27;96861;-76
2024/02/15 08:54:33;;;;;;;2.13;1.63;;;;;;;21.24;47.10;101388.75;5044252;27;99659;-76
2024/02/15 08:56:59;;;;;;;1.80;1.30;;;;;;;21.23;47.24;101387.03;5039896;27;97467;-77
2024/02/15 08:59:24;;;;;;;1.60;0.70;;;;;;;21.24;46.93;101391.41;5045674;27;96829;-76
2024/02/15 09:01:51;;;;;;;2.50;1.50;;;;;;;21.23;46.89;101384.38;5045904;27;97090;-76
2024/02/15 09:04:16;;;;;;;1.45;0.80;;;;;;;21.24;47.04;101387.88;5041893;27;96800;-76
2024/02/15 09:06:42;;;;;;;2.13;0.60;;;;;;;21.24;46.67;101385.25;5042482;27;99886;-76
2024/02/15 09:09:08;;;;;;;2.85;0.68;;;;;;;21.24;47.00;101382.59;5050497;27;97847;-76
2024/02/15 09:11:34;;;;;;;1.65;1.40;;;;;;;21.24;46.94;101388.75;5059775;27;96928;-77
2024/02/15 09:14:00;;;;;;;1.88;0.98;;;;;;;21.24;47.06;101383.44;5048828;27;98660;-76
2024/02/15 09:16:25;;;;;;;1.40;0.70;;;;;;;21.25;46.90;101376.38;5033758;27;100052;-77
2024/02/15 09:18:50;;;;;;;1.20;0.60;;;;;;;21.24;47.12;101383.44;5044217;27;96971;-77
2024/02/15 09:21:16;;;;;;;2.80;1.30;;;;;;;21.24;47.07;101385.25;5047417;27;96949;-76
2024/02/15 09:23:41;;;;;;;1.75;0.93;;;;;;;21.23;47.05;101387.03;5042471;27;119376;-77
2024/02/15 09:26:09;;;;;;;1.05;0.60;;;;;;;21.25;47.18;101390.50;5046914;27;99087;-77
2024/02/15 09:28:35;;;;;;;2.22;0.60;;;;;;;21.25;46.80;101387.00;5043611;27;97034;-76
2024/02/15 09:31:01;;;;;;;2.90;0.80;;;;;;;21.25;47.18;101384.34;5046623;27;98603;-76
2024/02/15 09:33:27;;;;;;;1.73;0.60;;;;;;;21.25;47.03;101390.50;5044317;27;97608;-77
2024/02/15 09:35:55;;;;;;;1.60;0.63;;;;;;;21.25;47.00;101379.03;5048765;27;97470;-77
2024/02/15 09:38:21;;;;;;;1.58;0.80;;;;;;;21.25;46.80;101379.91;5037856;27;97360;-76
2024/02/15 09:40:50;;;;;;;1.67;1.20;;;;;;;21.25;47.05;101385.22;5027875;27;96908;-76
2024/02/15 09:43:16;;;;;;;2.05;0.68;;;;;;;21.26;47.07;101391.38;5047857;27;97586;-76
2024/02/15 09:45:42;;;;;;;2.78;1.38;;;;;;;21.26;47.04;101386.94;5053407;27;96787;-76
2024/02/15 09:48:10;;;;;;;1.90;1.23;;;;;;;21.25;47.21;101379.91;5056250;27;97009;-76
2024/02/15 09:50:38;;;;;;;2.10;0.90;;;;;;;21.26;46.80;101386.94;5049510;27;97021;-76
2024/02/15 09:53:06;;;;;;;1.58;0.55;;;;;;;21.26;46.82;101389.59;5047270;27;96852;-76
2024/02/15 09:55:34;;;;;;;2.28;1.27;;;;;;;21.26;46.85;101378.97;5049090;27;97484;-76
2024/02/15 09:58:00;;;;;;;1.20;0.60;;;;;;;21.26;47.19;101388.72;5041980;27;96805;-76
2024/02/15 10:00:26;;;;;;;2.20;1.35;;;;;;;21.26;47.19;101389.59;5043252;27;96840;-76
2024/02/15 10:02:55;;;;;;;2.25;0.65;;;;;;;21.26;47.18;101389.59;5055016;27;99547;-76
2024/02/15 10:05:22;;;;;;;2.50;0.70;;;;;;;21.27;47.04;101393.13;5044306;27;97385;-76
2024/02/15 10:07:48;;;;;;;2.33;0.60;;;;;;;21.27;46.75;101390.47;5049035;27;97445;-77
2024/02/15 10:10:25;;;;;;;1.92;0.80;;;;;;;21.26;46.84;101388.72;5052668;27;96739;-76
2024/02/15 10:12:53;;;;;;;1.48;0.70;;;;;;;21.27;46.91;101386.03;5048394;27;97320;-76
2024/02/15 10:15:35;;;;;;;1.70;0.75;;;;;;;21.26;46.89;101386.06;5039803;27;97295;-76
2024/02/15 10:18:03;;;;;;;2.58;0.82;;;;;;;21.28;46.78;101386.91;5066606;27;97244;-76
2024/02/15 10:20:28;;;;;;;2.38;1.38;;;;;;;21.27;47.06;101383.38;5054822;27;96791;-76
2024/02/15 10:23:00;;;;;;;1.27;0.60;;;;;;;21.26;46.78;101375.47;5052453;27;97182;-76
2024/02/15 10:25:29;;;;;;;1.88;0.60;;;;;;;21.27;46.95;101378.06;5063977;27;98264;-76
2024/02/15 10:28:08;;;;;;;1.92;1.48;;;;;;;21.27;46.89;101371.91;5066633;27;96921;-76
2024/02/15 10:30:37;;;;;;;2.20;1.73;;;;;;;21.28;46.75;101387.78;5048499;27;97127;-76
2024/02/15 10:33:04;;;;;;;1.63;0.73;;;;;;;21.28;46.92;101378.94;5043976;27;97380;-76
2024/02/15 10:35:29;;;;;;;1.67;1.15;;;;;;;21.28;47.08;101378.94;5052641;27;97525;-78
2024/02/15 10:38:09;;;;;;;1.35;0.60;;;;;;;21.27;47.26;101378.06;5045750;27;97179;-78
2024/02/15 10:40:35;;;;;;;2.35;1.42;;;;;;;21.28;46.98;101379.84;5043645;27;96882;-76
2024/02/15 10:43:03;;;;;;;2.08;1.40;;;;;;;21.29;47.23;101386.88;5040100;27;97632;-76
2024/02/15 10:45:30;;;;;;;1.67;1.42;;;;;;;21.29;47.02;101381.56;5058425;27;97599;-76
2024/02/15 10:47:57;;;;;;;3.15;0.80;;;;;;;21.30;47.15;101374.47;5041079;27;97447;-76
2024/02/15 10:50:22;;;;;;;1.80;1.25;;;;;;;21.31;47.17;101376.22;5042396;27;97908;-76
2024/02/15 10:52:55;;;;;;;1.67;0.60;;;;;;;21.30;46.86;101378.00;5052874;27;96829;-76
2024/02/15 10:55:41;;;;;;;1.10;0.60;;;;;;;21.28;47.04;101374.53;5048660;27;97579;-76
2024/02/15 10:58:07;;;;;;;2.78;0.65;;;;;;;21.30;46.86;101372.72;5044866;27;96890;-76
2024/02/15 11:00:37;;;;;;;2.97;1.67;;;;;;;21.32;46.92;101377.09;5061908;27;97338;-76
2024/02/15 11:03:07;;;;;;;1.67;0.90;;;;;;;21.32;46.83;101377.09;5044628;27;98702;-76
2024/02/15 11:05:34;;;;;;;1.15;0.60;;;;;;;21.31;46.84;101368.25;5046269;27;96963;-76
2024/02/15 11:08:03;;;;;;;2.95;1.33;;;;;;;21.32;46.78;101375.31;5044077;27;97185;-76
2024/02/15 11:10:30;;;;;;;0.90;0.70;;;;;;;21.32;47.01;101366.47;5051416;27;97538;-76
2024/02/15 11:12:58;;;;;;;1.30;0.57;;;;;;;21.32;47.20;101364.72;5042337;27;96804;-76
2024/02/15 11:15:36;;;;;;;1.88;0.90;;;;;;;21.31;47.03;101360.31;5047949;27;99617;-76
2024/02/15 11:18:03;;;;;;;1.63;1.00;;;;;;;21.32;47.10;101362.06;5047120;27;96840;-76
2024/02/15 11:20:32;;;;;;;1.80;1.20;;;;;;;21.32;47.13;101359.41;5048380;27;98248;-76
2024/02/15 11:22:58;;;;;;;1.52;0.57;;;;;;;21.33;46.87;101365.56;5039735;27;97838;-78
2024/02/15 11:25:41;;;;;;;2.03;1.88;;;;;;;21.32;47.28;101361.16;5045256;27;97399;-76
2024/02/15 11:28:22;;;;;;;2.30;1.13;;;;;;;21.31;47.06;101357.66;5029032;27;96723;-75
2024/02/15 11:30:51;;;;;;;1.30;0.68;;;;;;;21.32;46.87;101354.09;5046251;27;99449;-76
2024/02/15 11:33:38;;;;;;;2.08;0.68;;;;;;;21.30;46.96;101354.13;5047526;27;97940;-76
2024/02/15 11:36:13;;;;;;;2.00;1.23;;;;;;;21.33;46.99;101357.63;5047543;27;97704;-77